Time;durP1;ratioP1;P1;durP2;ratioP2;P2;SDS_P1;SDS_P2;PMS_P1;PMS_P2;Temp;Humidity;BMP_temperature;BMP_pressure;BME280_temperature;BME280_humidity;BME280_pressure;Samples;Min_cycle;Max_cycle;Signal;HPM_P1;HPM_P2
2021/08/12 00:01:41;;;;;;;12.00;6.90;;;;;;;;;;5061386;28;20109;-46
2021/08/12 00:04:06;;;;;;;17.20;7.93;;;;;;;;;;5061146;28;20433;-51
2021/08/12 00:06:32;;;;;;;18.77;8.85;;;;;;;;;;5070065;28;20021;-47
2021/08/12 00:08:57;;;;;;;28.73;8.60;;;;;;;;;;5071742;28;20130;-51
2021/08/12 00:11:22;;;;;;;21.20;9.00;;;;;;;;;;5071782;28;20077;-52
2021/08/12 00:13:48;;;;;;;23.40;8.18;;;;;;;;;;5073066;28;20384;-49
2021/08/12 00:16:13;;;;;;;21.05;9.38;;;;;;;;;;5070305;28;20059;-49
2021/08/12 00:18:39;;;;;;;20.08;8.13;;;;;;;;;;5072406;28;20365;-47
2021/08/12 00:21:06;;;;;;;19.13;7.80;;;;;;;;;;5068500;28;20024;-47
2021/08/12 00:23:31;;;;;;;13.68;7.88;;;;;;;;;;5069992;28;20518;-53
2021/08/12 00:25:57;;;;;;;19.63;8.38;;;;;;;;;;5071496;28;20070;-47
2021/08/12 00:28:22;;;;;;;25.42;9.02;;;;;;;;;;5069649;28;20029;-49
2021/08/12 00:30:48;;;;;;;21.63;9.18;;;;;;;;;;5072245;28;20020;-46
2021/08/12 00:33:13;;;;;;;14.95;7.65;;;;;;;;;;5069028;28;20459;-47
2021/08/12 00:35:38;;;;;;;18.77;7.10;;;;;;;;;;5073967;28;20033;-51
2021/08/12 00:38:04;;;;;;;18.20;7.50;;;;;;;;;;5076831;28;21121;-50
2021/08/12 00:40:30;;;;;;;13.27;7.90;;;;;;;;;;5073379;28;20047;-47
2021/08/12 00:42:55;;;;;;;26.60;8.32;;;;;;;;;;5076299;28;20032;-46
2021/08/12 00:45:20;;;;;;;15.98;7.25;;;;;;;;;;5076214;28;20028;-49
2021/08/12 00:47:46;;;;;;;31.27;9.18;;;;;;;;;;5074969;28;20027;-53
2021/08/12 00:50:11;;;;;;;23.85;7.70;;;;;;;;;;5077344;28;20073;-48
2021/08/12 00:52:37;;;;;;;23.98;8.30;;;;;;;;;;5078068;28;20038;-50
2021/08/12 00:55:03;;;;;;;22.70;9.18;;;;;;;;;;5078336;28;20021;-51
2021/08/12 00:57:28;;;;;;;12.27;7.45;;;;;;;;;;5075444;28;20073;-51
2021/08/12 00:59:53;;;;;;;18.23;7.03;;;;;;;;;;5071009;28;20024;-45
2021/08/12 01:02:19;;;;;;;18.13;7.55;;;;;;;;;;5080044;28;20059;-48
2021/08/12 01:04:45;;;;;;;33.67;8.68;;;;;;;;;;5075310;28;20048;-47
2021/08/12 01:07:20;;;;;;;26.23;8.30;;;;;;;;;;5077978;28;20028;-51
2021/08/12 01:09:49;;;;;;;21.42;8.60;;;;;;;;;;5078820;28;20025;-47
2021/08/12 01:12:23;;;;;;;24.73;9.70;;;;;;;;;;5075761;28;20356;-45
2021/08/12 01:15:00;;;;;;;31.25;10.15;;;;;;;;;;5073960;28;20020;-51
2021/08/12 01:17:29;;;;;;;25.50;10.60;;;;;;;;;;5077493;28;20127;-46
2021/08/12 01:20:03;;;;;;;18.33;10.30;;;;;;;;;;5074050;28;20477;-51
2021/08/12 01:22:29;;;;;;;11.32;6.70;;;;;;;;;;5072955;28;20028;-50
2021/08/12 01:24:59;;;;;;;30.67;9.38;;;;;;;;;;5079629;28;20481;-52
2021/08/12 01:27:31;;;;;;;18.85;10.45;;;;;;;;;;5072199;28;20017;-50
2021/08/12 01:30:06;;;;;;;26.30;9.00;;;;;;;;;;5077018;28;20024;-51
2021/08/12 01:32:51;;;;;;;26.33;9.57;;;;;;;;;;5075719;28;20020;-49
2021/08/12 01:35:19;;;;;;;22.48;9.57;;;;;;;;;;5073584;28;20024;-50
2021/08/12 01:37:47;;;;;;;37.10;8.85;;;;;;;;;;5073185;28;20028;-52
2021/08/12 01:40:14;;;;;;;11.57;5.43;;;;;;;;;;5076619;28;20116;-51
2021/08/12 01:42:40;;;;;;;12.50;4.00;;;;;;;;;;5077138;28;20033;-52
2021/08/12 01:45:05;;;;;;;18.80;8.57;;;;;;;;;;5079327;28;20027;-50
2021/08/12 01:47:32;;;;;;;12.75;8.30;;;;;;;;;;5072770;28;20423;-50
2021/08/12 01:49:58;;;;;;;44.10;9.85;;;;;;;;;;5074232;28;20047;-50
2021/08/12 01:52:23;;;;;;;19.85;8.98;;;;;;;;;;5077146;28;20065;-47
2021/08/12 01:54:49;;;;;;;31.00;9.82;;;;;;;;;;5076874;28;20592;-46
2021/08/12 01:57:16;;;;;;;21.92;7.78;;;;;;;;;;5073639;28;20198;-50
2021/08/12 01:59:41;;;;;;;23.20;9.13;;;;;;;;;;5077403;28;20029;-46
2021/08/12 02:02:08;;;;;;;30.30;10.50;;;;;;;;;;5071283;28;20101;-52
2021/08/12 02:04:34;;;;;;;26.15;6.30;;;;;;;;;;5075806;28;20558;-49
2021/08/12 02:07:02;;;;;;;9.25;5.00;;;;;;;;;;5074611;28;20055;-48
2021/08/12 02:09:27;;;;;;;28.10;9.73;;;;;;;;;;5074825;28;20008;-49
2021/08/12 02:11:52;;;;;;;31.15;8.93;;;;;;;;;;5076663;28;20028;-48
2021/08/12 02:14:18;;;;;;;26.42;9.23;;;;;;;;;;5079059;28;20067;-47
2021/08/12 02:16:43;;;;;;;17.88;6.50;;;;;;;;;;5078300;28;20024;-51
2021/08/12 02:19:08;;;;;;;12.70;8.10;;;;;;;;;;5077622;28;20466;-49
2021/08/12 02:21:36;;;;;;;29.25;9.50;;;;;;;;;;5075798;28;20032;-50
2021/08/12 02:24:07;;;;;;;19.83;7.72;;;;;;;;;;5076074;28;20028;-50
2021/08/12 02:26:34;;;;;;;12.48;4.32;;;;;;;;;;5076646;28;20029;-47
2021/08/12 02:29:00;;;;;;;27.13;8.63;;;;;;;;;;5076488;28;20051;-49
2021/08/12 02:31:26;;;;;;;25.92;8.68;;;;;;;;;;5074319;28;20013;-49
2021/08/12 02:33:52;;;;;;;29.63;10.05;;;;;;;;;;5076566;28;20632;-48
2021/08/12 02:36:18;;;;;;;26.45;6.80;;;;;;;;;;5073559;28;20028;-48
2021/08/12 02:38:45;;;;;;;22.00;7.88;;;;;;;;;;5078394;28;20035;-48
2021/08/12 02:41:12;;;;;;;26.35;8.65;;;;;;;;;;5079841;28;20024;-49
2021/08/12 02:43:39;;;;;;;35.20;9.60;;;;;;;;;;5074243;28;20039;-48
2021/08/12 02:46:04;;;;;;;34.28;8.20;;;;;;;;;;5071148;28;20043;-49
2021/08/12 02:48:31;;;;;;;28.73;7.28;;;;;;;;;;5076136;28;20052;-49
2021/08/12 02:50:57;;;;;;;28.20;10.52;;;;;;;;;;5070570;28;20028;-46
2021/08/12 02:53:23;;;;;;;37.70;10.95;;;;;;;;;;5074901;28;20025;-47
2021/08/12 02:55:50;;;;;;;19.38;8.95;;;;;;;;;;5076910;28;20481;-48
2021/08/12 02:58:15;;;;;;;19.38;7.45;;;;;;;;;;5079019;28;20020;-48
2021/08/12 03:00:41;;;;;;;30.77;8.88;;;;;;;;;;5074690;28;20024;-49
2021/08/12 03:03:07;;;;;;;32.97;12.25;;;;;;;;;;5074752;28;20393;-46
2021/08/12 03:05:35;;;;;;;31.35;9.07;;;;;;;;;;5075636;28;20581;-46
2021/08/12 03:08:01;;;;;;;32.45;9.88;;;;;;;;;;5076359;28;20055;-49
2021/08/12 03:10:28;;;;;;;34.63;10.63;;;;;;;;;;5077639;28;20425;-46
2021/08/12 03:12:53;;;;;;;29.52;10.32;;;;;;;;;;5072347;28;20082;-48
2021/08/12 03:15:19;;;;;;;36.13;8.95;;;;;;;;;;5073719;28;20031;-47
2021/08/12 03:17:45;;;;;;;24.10;12.27;;;;;;;;;;5076061;28;20581;-49
2021/08/12 03:20:10;;;;;;;38.75;10.00;;;;;;;;;;5077627;28;20116;-45
2021/08/12 03:22:36;;;;;;;36.05;10.27;;;;;;;;;;5075133;28;20055;-49
2021/08/12 03:25:01;;;;;;;42.17;9.73;;;;;;;;;;5075066;28;20051;-48
2021/08/12 03:27:26;;;;;;;43.17;13.55;;;;;;;;;;5076061;28;20012;-47
2021/08/12 03:29:52;;;;;;;43.78;12.30;;;;;;;;;;5078011;28;20020;-46
2021/08/12 03:32:18;;;;;;;28.33;10.18;;;;;;;;;;5079369;28;20055;-47
2021/08/12 03:34:44;;;;;;;57.40;12.30;;;;;;;;;;5074632;28;20082;-46
2021/08/12 03:37:09;;;;;;;54.95;9.93;;;;;;;;;;5069231;28;20028;-47
2021/08/12 03:39:35;;;;;;;30.35;9.02;;;;;;;;;;5074680;28;20542;-47
2021/08/12 03:42:00;;;;;;;31.15;10.35;;;;;;;;;;5071921;28;20511;-46
2021/08/12 03:44:25;;;;;;;51.05;16.02;;;;;;;;;;5078270;28;20031;-48
2021/08/12 03:46:51;;;;;;;30.92;9.15;;;;;;;;;;5075470;28;20578;-46
2021/08/12 03:49:17;;;;;;;35.17;11.07;;;;;;;;;;5074526;28;20476;-47
2021/08/12 03:51:42;;;;;;;31.08;10.68;;;;;;;;;;5076333;28;20020;-48
2021/08/12 03:54:08;;;;;;;26.27;11.98;;;;;;;;;;5074792;28;20077;-49
2021/08/12 03:56:33;;;;;;;39.20;8.30;;;;;;;;;;5072081;28;20035;-49
2021/08/12 03:58:58;;;;;;;47.95;13.60;;;;;;;;;;5073351;28;20028;-47
2021/08/12 04:01:24;;;;;;;22.50;9.48;;;;;;;;;;5074676;28;20051;-45
2021/08/12 04:03:49;;;;;;;31.00;10.43;;;;;;;;;;5075790;28;20519;-49
2021/08/12 04:06:14;;;;;;;44.88;11.75;;;;;;;;;;5074499;28;20115;-48
2021/08/12 04:08:40;;;;;;;25.33;11.05;;;;;;;;;;5072064;28;20543;-48
2021/08/12 04:11:05;;;;;;;39.42;13.18;;;;;;;;;;5066979;28;20191;-47
2021/08/12 04:13:31;;;;;;;34.22;13.13;;;;;;;;;;5072030;28;20094;-47
2021/08/12 04:15:56;;;;;;;31.15;9.48;;;;;;;;;;5070162;28;20028;-47
2021/08/12 04:18:21;;;;;;;44.72;12.70;;;;;;;;;;5073142;28;20021;-46
2021/08/12 04:20:47;;;;;;;41.08;11.07;;;;;;;;;;5072999;28;20098;-48
2021/08/12 04:23:12;;;;;;;26.67;11.02;;;;;;;;;;5072352;28;20183;-47
2021/08/12 04:25:37;;;;;;;42.20;9.65;;;;;;;;;;5074128;28;20077;-47
2021/08/12 04:28:03;;;;;;;14.77;5.32;;;;;;;;;;5071904;28;20020;-46
2021/08/12 04:30:28;;;;;;;12.05;5.15;;;;;;;;;;5077462;28;20029;-51
2021/08/12 04:32:54;;;;;;;6.90;4.53;;;;;;;;;;5072184;28;20023;-49
2021/08/12 04:35:19;;;;;;;21.67;10.20;;;;;;;;;;5075686;28;20032;-47
2021/08/12 04:37:45;;;;;;;35.38;11.40;;;;;;;;;;5071159;28;20048;-47
2021/08/12 04:40:15;;;;;;;37.70;13.80;;;;;;;;;;5072553;28;20028;-48
2021/08/12 04:42:41;;;;;;;52.90;9.95;;;;;;;;;;5073261;28;20020;-47
2021/08/12 04:45:06;;;;;;;48.00;14.00;;;;;;;;;;5076580;28;20033;-49
2021/08/12 04:47:31;;;;;;;19.05;8.55;;;;;;;;;;5066611;28;20013;-49
2021/08/12 04:49:57;;;;;;;36.13;12.45;;;;;;;;;;5072979;28;20051;-50
2021/08/12 04:52:23;;;;;;;33.90;12.60;;;;;;;;;;5076219;28;20021;-48
2021/08/12 04:54:48;;;;;;;50.22;11.90;;;;;;;;;;5071371;28;20025;-48
2021/08/12 04:57:14;;;;;;;23.52;10.02;;;;;;;;;;5071734;28;20388;-47
2021/08/12 04:59:39;;;;;;;19.17;10.15;;;;;;;;;;5074723;28;20373;-47
2021/08/12 05:02:04;;;;;;;23.70;9.05;;;;;;;;;;5074209;28;20139;-49
2021/08/12 05:04:30;;;;;;;29.20;11.45;;;;;;;;;;5068963;28;20020;-50
2021/08/12 05:06:55;;;;;;;12.70;7.25;;;;;;;;;;5072413;28;20021;-48
2021/08/12 05:09:20;;;;;;;30.77;12.27;;;;;;;;;;5072807;28;20021;-48
2021/08/12 05:11:45;;;;;;;23.13;8.55;;;;;;;;;;5073102;28;20493;-50
2021/08/12 05:14:11;;;;;;;23.90;7.70;;;;;;;;;;5066773;28;20044;-51
2021/08/12 05:16:36;;;;;;;42.72;10.30;;;;;;;;;;5077446;28;20051;-46
2021/08/12 05:19:01;;;;;;;25.23;9.48;;;;;;;;;;5079110;28;20159;-51
2021/08/12 05:21:27;;;;;;;27.27;11.30;;;;;;;;;;5072488;28;20033;-49
2021/08/12 05:23:52;;;;;;;28.85;10.45;;;;;;;;;;5074921;28;20149;-47
2021/08/12 05:26:17;;;;;;;33.40;11.32;;;;;;;;;;5074565;28;20024;-45
2021/08/12 05:28:43;;;;;;;29.02;11.98;;;;;;;;;;5075674;28;20027;-47
2021/08/12 05:31:08;;;;;;;24.38;8.73;;;;;;;;;;5076482;28;20496;-45
2021/08/12 05:33:34;;;;;;;21.92;8.68;;;;;;;;;;5078054;28;20528;-45
2021/08/12 05:36:00;;;;;;;42.17;11.68;;;;;;;;;;5074297;28;20027;-47
2021/08/12 05:38:25;;;;;;;39.33;11.75;;;;;;;;;;5076718;28;20756;-46
2021/08/12 05:40:50;;;;;;;29.15;11.38;;;;;;;;;;5076321;28;20052;-47
2021/08/12 05:43:15;;;;;;;29.45;9.73;;;;;;;;;;5077660;28;20551;-47
2021/08/12 05:45:41;;;;;;;28.88;10.73;;;;;;;;;;5075808;28;20532;-51
2021/08/12 05:48:06;;;;;;;25.40;11.25;;;;;;;;;;5075130;28;20024;-46
2021/08/12 05:50:31;;;;;;;26.27;10.93;;;;;;;;;;5075900;28;20024;-47
2021/08/12 05:52:57;;;;;;;25.85;12.00;;;;;;;;;;5078913;28;20538;-45
2021/08/12 05:55:22;;;;;;;38.35;11.70;;;;;;;;;;5074718;28;20017;-47
2021/08/12 05:57:47;;;;;;;22.30;10.90;;;;;;;;;;5073514;28;20765;-46
2021/08/12 06:00:13;;;;;;;33.03;13.63;;;;;;;;;;5076706;28;20457;-45
2021/08/12 06:02:38;;;;;;;50.63;13.35;;;;;;;;;;5072779;28;20060;-51
2021/08/12 06:05:03;;;;;;;36.70;10.38;;;;;;;;;;5076847;28;20027;-48
2021/08/12 06:07:29;;;;;;;36.85;12.43;;;;;;;;;;5082228;28;20446;-47
2021/08/12 06:09:54;;;;;;;60.22;13.60;;;;;;;;;;5075576;28;20052;-46
2021/08/12 06:12:19;;;;;;;57.67;13.80;;;;;;;;;;5074620;28;20127;-44
2021/08/12 06:14:45;;;;;;;37.53;12.27;;;;;;;;;;5074665;28;20017;-47
2021/08/12 06:17:10;;;;;;;29.38;11.00;;;;;;;;;;5080022;28;20054;-45
2021/08/12 06:19:35;;;;;;;41.80;13.57;;;;;;;;;;5077009;28;20020;-46
2021/08/12 06:22:00;;;;;;;33.03;12.57;;;;;;;;;;5075054;28;20040;-46
2021/08/12 06:24:26;;;;;;;37.85;15.18;;;;;;;;;;5072257;28;20035;-48
2021/08/12 06:26:51;;;;;;;38.50;13.02;;;;;;;;;;5074921;28;20016;-50
2021/08/12 06:29:16;;;;;;;30.83;12.40;;;;;;;;;;5074574;28;20074;-49
2021/08/12 06:31:42;;;;;;;37.20;13.82;;;;;;;;;;5073823;28;20383;-52
2021/08/12 06:34:07;;;;;;;37.47;13.63;;;;;;;;;;5074054;28;20017;-43
2021/08/12 06:36:32;;;;;;;25.02;10.93;;;;;;;;;;5078048;28;20028;-51
2021/08/12 06:39:01;;;;;;;33.20;11.90;;;;;;;;;;5072198;28;20517;-44
2021/08/12 06:41:27;;;;;;;41.67;14.25;;;;;;;;;;5076297;28;20035;-46
2021/08/12 06:43:52;;;;;;;36.05;13.35;;;;;;;;;;5077584;28;20020;-51
2021/08/12 06:46:17;;;;;;;24.73;12.07;;;;;;;;;;5075217;28;20056;-48
2021/08/12 06:48:42;;;;;;;25.05;12.25;;;;;;;;;;5071474;28;20021;-52
2021/08/12 06:51:08;;;;;;;32.95;12.73;;;;;;;;;;5075253;28;20684;-47
2021/08/12 06:53:34;;;;;;;52.40;10.73;;;;;;;;;;5076372;28;20097;-46
2021/08/12 06:55:59;;;;;;;22.63;9.57;;;;;;;;;;5074852;28;20471;-47
2021/08/12 06:58:24;;;;;;;33.67;15.55;;;;;;;;;;5077446;28;20029;-51
2021/08/12 07:00:50;;;;;;;9.15;6.00;;;;;;;;;;5074259;28;20024;-48
2021/08/12 07:03:15;;;;;;;41.08;15.98;;;;;;;;;;5076160;28;20043;-51
2021/08/12 07:05:40;;;;;;;38.53;15.75;;;;;;;;;;5080255;28;20032;-48
2021/08/12 07:08:08;;;;;;;49.67;16.13;;;;;;;;;;5075159;28;20507;-51
2021/08/12 07:10:33;;;;;;;34.65;12.95;;;;;;;;;;5070071;28;20506;-48
2021/08/12 07:12:58;;;;;;;43.88;12.93;;;;;;;;;;5076361;28;20032;-51
2021/08/12 07:15:24;;;;;;;41.42;11.73;;;;;;;;;;5075136;28;20029;-48
2021/08/12 07:17:49;;;;;;;37.90;13.30;;;;;;;;;;5077483;28;20463;-48
2021/08/12 07:20:15;;;;;;;38.75;14.70;;;;;;;;;;5075717;28;20022;-52
2021/08/12 07:22:40;;;;;;;38.05;13.52;;;;;;;;;;5069336;28;20351;-45
2021/08/12 07:25:06;;;;;;;31.70;13.95;;;;;;;;;;5070884;28;20020;-47
2021/08/12 07:27:31;;;;;;;52.92;16.90;;;;;;;;;;5075992;28;20551;-43
2021/08/12 07:29:56;;;;;;;53.17;13.38;;;;;;;;;;5073443;28;20017;-42
2021/08/12 07:32:22;;;;;;;21.17;10.82;;;;;;;;;;5072978;28;20066;-42
2021/08/12 07:34:47;;;;;;;30.70;11.43;;;;;;;;;;5074387;28;20024;-42
2021/08/12 07:37:12;;;;;;;29.55;12.80;;;;;;;;;;5073369;28;20497;-42
2021/08/12 07:39:38;;;;;;;21.70;14.93;;;;;;;;;;5075463;28;20109;-45
2021/08/12 07:42:03;;;;;;;47.63;21.35;;;;;;;;;;5072657;28;20082;-43
2021/08/12 07:44:28;;;;;;;31.75;13.10;;;;;;;;;;5071255;28;20025;-46
2021/08/12 07:46:54;;;;;;;28.98;11.68;;;;;;;;;;5076755;28;20148;-44
2021/08/12 07:49:19;;;;;;;29.13;18.45;;;;;;;;;;5070987;28;20082;-43
2021/08/12 07:51:44;;;;;;;18.45;10.80;;;;;;;;;;5073438;28;20025;-43
2021/08/12 07:54:10;;;;;;;17.23;7.45;;;;;;;;;;5072695;28;20152;-45
2021/08/12 07:56:35;;;;;;;14.43;7.53;;;;;;;;;;5072889;28;20051;-43
2021/08/12 07:59:00;;;;;;;48.30;12.57;;;;;;;;;;5069265;28;20515;-42
2021/08/12 08:01:26;;;;;;;35.92;12.02;;;;;;;;;;5072186;28;20063;-42
2021/08/12 08:03:51;;;;;;;18.95;10.50;;;;;;;;;;5071813;28;20047;-45
2021/08/12 08:06:16;;;;;;;25.13;6.80;;;;;;;;;;5071055;28;20525;-44
2021/08/12 08:08:42;;;;;;;14.05;8.13;;;;;;;;;;5074003;28;20444;-44
2021/08/12 08:11:07;;;;;;;10.82;2.78;;;;;;;;;;5071818;28;20012;-42
2021/08/12 08:13:33;;;;;;;7.82;3.97;;;;;;;;;;5070790;28;20029;-44
2021/08/12 08:15:58;;;;;;;14.93;8.20;;;;;;;;;;5073258;28;20081;-43
2021/08/12 08:18:24;;;;;;;10.27;4.60;;;;;;;;;;5074156;28;20016;-43
2021/08/12 08:20:49;;;;;;;13.85;9.27;;;;;;;;;;5072376;28;20113;-42
2021/08/12 08:23:15;;;;;;;16.50;6.55;;;;;;;;;;5069559;28;20035;-42
2021/08/12 08:25:40;;;;;;;9.52;5.75;;;;;;;;;;5070079;28;20024;-42
2021/08/12 08:28:06;;;;;;;12.88;6.38;;;;;;;;;;5074548;28;20207;-42
2021/08/12 08:30:32;;;;;;;23.85;8.50;;;;;;;;;;5073922;28;20028;-39
2021/08/12 08:32:57;;;;;;;17.27;7.15;;;;;;;;;;5076380;28;20027;-41
2021/08/12 08:35:26;;;;;;;12.27;7.43;;;;;;;;;;5071144;28;20027;-40
2021/08/12 08:37:52;;;;;;;16.42;8.40;;;;;;;;;;5075273;28;20034;-41
2021/08/12 08:40:17;;;;;;;33.08;7.85;;;;;;;;;;5073957;28;20394;-43
2021/08/12 08:42:42;;;;;;;18.27;8.93;;;;;;;;;;5072634;28;20028;-46
2021/08/12 08:45:08;;;;;;;17.05;9.20;;;;;;;;;;5074428;28;20408;-43
2021/08/12 08:47:34;;;;;;;17.13;8.18;;;;;;;;;;5077229;28;20472;-42
2021/08/12 08:50:00;;;;;;;23.67;8.80;;;;;;;;;;5071109;28;20135;-47
2021/08/12 08:52:26;;;;;;;28.13;11.30;;;;;;;;;;5074870;28;20107;-47
2021/08/12 08:54:53;;;;;;;38.88;7.72;;;;;;;;;;5077620;28;20103;-47
2021/08/12 08:57:19;;;;;;;18.67;8.10;;;;;;;;;;5075625;28;20016;-49
2021/08/12 08:59:44;;;;;;;24.73;6.20;;;;;;;;;;5076504;28;20066;-48
2021/08/12 09:02:10;;;;;;;17.80;6.60;;;;;;;;;;5072684;28;20059;-46
2021/08/12 09:04:36;;;;;;;32.75;6.32;;;;;;;;;;5079174;28;20021;-46
2021/08/12 09:07:05;;;;;;;13.32;6.85;;;;;;;;;;5076142;28;20120;-45
2021/08/12 09:09:32;;;;;;;20.55;5.30;;;;;;;;;;5071288;28;20027;-45
2021/08/12 09:11:58;;;;;;;15.50;8.15;;;;;;;;;;5072117;28;20021;-46
2021/08/12 09:14:42;;;;;;;8.13;5.07;;;;;;;;;;5077060;28;20031;-49
2021/08/12 09:17:13;;;;;;;12.30;4.88;;;;;;;;;;5073937;28;20017;-46
2021/08/12 09:19:39;;;;;;;14.80;9.30;;;;;;;;;;5077029;28;20024;-46
2021/08/12 09:22:04;;;;;;;20.77;6.63;;;;;;;;;;5076438;28;20086;-46
2021/08/12 09:24:47;;;;;;;55.33;12.57;;;;;;;;;;5077672;28;20028;-48
2021/08/12 09:27:19;;;;;;;24.40;4.63;;;;;;;;;;5076424;28;20040;-49
2021/08/12 09:29:45;;;;;;;13.77;7.55;;;;;;;;;;5076977;28;20032;-47
2021/08/12 09:32:10;;;;;;;25.88;8.45;;;;;;;;;;5072968;28;20082;-46
2021/08/12 09:34:42;;;;;;;14.20;8.48;;;;;;;;;;5075300;28;20387;-48
2021/08/12 09:37:08;;;;;;;8.70;5.25;;;;;;;;;;5074571;28;20016;-45
2021/08/12 09:39:34;;;;;;;12.55;6.85;;;;;;;;;;5076865;28;20052;-46
2021/08/12 09:42:00;;;;;;;27.15;9.50;;;;;;;;;;5076053;28;20407;-48
2021/08/12 09:44:31;;;;;;;28.95;10.57;;;;;;;;;;5075764;28;20013;-45
2021/08/12 09:46:57;;;;;;;26.63;9.07;;;;;;;;;;5073535;28;20333;-44
2021/08/12 09:49:23;;;;;;;12.32;6.82;;;;;;;;;;5075822;28;20457;-47
2021/08/12 09:51:48;;;;;;;15.52;5.40;;;;;;;;;;5078721;28;20077;-48
2021/08/12 09:54:14;;;;;;;15.15;7.53;;;;;;;;;;5079776;28;20494;-46
2021/08/12 09:56:39;;;;;;;13.80;4.60;;;;;;;;;;5078331;28;20112;-47
2021/08/12 09:59:07;;;;;;;30.63;8.48;;;;;;;;;;5069906;28;20025;-47
2021/08/12 10:01:33;;;;;;;40.22;10.48;;;;;;;;;;5076825;28;20070;-46
2021/08/12 10:03:58;;;;;;;14.32;6.65;;;;;;;;;;5077332;28;20028;-45
2021/08/12 10:06:31;;;;;;;31.80;6.60;;;;;;;;;;5075568;28;20088;-48
2021/08/12 10:08:56;;;;;;;13.95;5.03;;;;;;;;;;5074316;28;20131;-47
2021/08/12 10:11:25;;;;;;;21.92;7.90;;;;;;;;;;5075691;28;20021;-46
2021/08/12 10:13:51;;;;;;;32.38;9.95;;;;;;;;;;5075656;28;20028;-46
2021/08/12 10:16:17;;;;;;;17.65;10.25;;;;;;;;;;5075399;28;20020;-47
2021/08/12 10:18:44;;;;;;;20.75;7.53;;;;;;;;;;5075971;28;20024;-47
2021/08/12 10:21:14;;;;;;;11.73;5.60;;;;;;;;;;5075425;28;20024;-48
2021/08/12 10:23:40;;;;;;;21.17;6.82;;;;;;;;;;5074769;28;20498;-47
2021/08/12 10:26:06;;;;;;;19.63;5.57;;;;;;;;;;5077493;28;20102;-46
2021/08/12 10:28:35;;;;;;;13.02;4.43;;;;;;;;;;5071191;28;20016;-46
2021/08/12 10:31:04;;;;;;;4.60;1.67;;;;;;;;;;5075410;28;20140;-48
2021/08/12 10:33:30;;;;;;;37.45;6.28;;;;;;;;;;5074152;28;20051;-47
2021/08/12 10:35:57;;;;;;;13.82;5.63;;;;;;;;;;5074285;28;20046;-47
2021/08/12 10:38:23;;;;;;;10.10;5.15;;;;;;;;;;5077649;28;20533;-49
2021/08/12 10:40:48;;;;;;;7.22;3.92;;;;;;;;;;5076089;28;20024;-52
2021/08/12 10:43:18;;;;;;;15.23;8.65;;;;;;;;;;5086406;28;20031;-47
2021/08/12 10:45:52;;;;;;;13.10;7.20;;;;;;;;;;5074872;28;20048;-53
2021/08/12 10:48:20;;;;;;;28.52;8.10;;;;;;;;;;5073751;28;20077;-52
2021/08/12 10:50:59;;;;;;;27.52;10.30;;;;;;;;;;5074857;28;20016;-46
2021/08/12 10:53:24;;;;;;;13.73;5.00;;;;;;;;;;5073793;28;20028;-46
2021/08/12 10:55:49;;;;;;;29.25;9.77;;;;;;;;;;5070814;28;20097;-46
2021/08/12 10:58:17;;;;;;;20.33;7.53;;;;;;;;;;5072503;28;20028;-45
2021/08/12 11:00:49;;;;;;;23.17;7.57;;;;;;;;;;5075086;28;20256;-49
2021/08/12 11:03:15;;;;;;;19.77;10.15;;;;;;;;;;5074675;28;20626;-43
2021/08/12 11:05:58;;;;;;;22.23;3.70;;;;;;;;;;5077091;28;20102;-44
2021/08/12 11:08:42;;;;;;;10.18;4.15;;;;;;;;;;5074686;28;20021;-43
2021/08/12 11:11:07;;;;;;;5.93;4.57;;;;;;;;;;5074034;28;20020;-45
2021/08/12 11:13:33;;;;;;;18.33;5.32;;;;;;;;;;5075028;28;20031;-45
2021/08/12 11:15:59;;;;;;;11.00;4.85;;;;;;;;;;5073386;28;20071;-42
2021/08/12 11:18:43;;;;;;;15.88;4.90;;;;;;;;;;5069800;28;20023;-46
2021/08/12 11:21:27;;;;;;;9.13;5.85;;;;;;;;;;5076293;28;20043;-46
2021/08/12 11:23:52;;;;;;;13.25;3.90;;;;;;;;;;5067519;28;20084;-47
2021/08/12 11:26:17;;;;;;;27.70;7.45;;;;;;;;;;5074488;28;20063;-47
2021/08/12 11:28:43;;;;;;;28.33;7.78;;;;;;;;;;5076341;28;20012;-47
2021/08/12 11:31:20;;;;;;;16.10;6.90;;;;;;;;;;5071112;28;20094;-44
2021/08/12 11:33:46;;;;;;;25.77;7.43;;;;;;;;;;5073117;28;20158;-44
2021/08/12 11:36:19;;;;;;;16.73;8.50;;;;;;;;;;5074143;28;20070;-45
2021/08/12 11:39:08;;;;;;;8.50;4.53;;;;;;;;;;5075383;28;20030;-47
2021/08/12 11:41:37;;;;;;;13.05;5.75;;;;;;;;;;5073824;28;20598;-43
2021/08/12 11:44:07;;;;;;;15.63;6.07;;;;;;;;;;5071025;28;20036;-48
2021/08/12 11:46:37;;;;;;;13.68;4.60;;;;;;;;;;5075987;28;20024;-46
2021/08/12 11:49:02;;;;;;;24.10;6.70;;;;;;;;;;5073040;28;20032;-46
2021/08/12 11:51:32;;;;;;;19.75;6.88;;;;;;;;;;5074619;28;20024;-49
2021/08/12 11:53:58;;;;;;;18.90;8.45;;;;;;;;;;5071720;28;20112;-47
2021/08/12 11:56:25;;;;;;;23.38;7.38;;;;;;;;;;5069507;28;20033;-48
2021/08/12 11:59:00;;;;;;;14.38;5.25;;;;;;;;;;5073279;28;20024;-48
2021/08/12 12:01:26;;;;;;;21.92;7.70;;;;;;;;;;5072020;28;20045;-48
2021/08/12 12:04:05;;;;;;;14.02;6.57;;;;;;;;;;5071785;28;20040;-48
2021/08/12 12:06:31;;;;;;;4.30;2.92;;;;;;;;;;5071519;28;20498;-46
2021/08/12 12:08:57;;;;;;;10.55;4.30;;;;;;;;;;5073241;28;20240;-47
2021/08/12 12:11:22;;;;;;;19.95;8.05;;;;;;;;;;5074005;28;20313;-42
2021/08/12 12:13:48;;;;;;;17.75;7.95;;;;;;;;;;5075459;28;20024;-47
2021/08/12 12:16:13;;;;;;;16.50;7.60;;;;;;;;;;5073511;28;20028;-48
2021/08/12 12:18:40;;;;;;;17.92;6.28;;;;;;;;;;5073133;28;20487;-48
2021/08/12 12:21:07;;;;;;;12.77;6.68;;;;;;;;;;5071204;28;20028;-43
2021/08/12 12:23:33;;;;;;;12.73;7.85;;;;;;;;;;5071280;28;20759;-48
2021/08/12 12:25:58;;;;;;;17.10;6.82;;;;;;;;;;5072914;28;20021;-45
2021/08/12 12:28:24;;;;;;;16.90;8.57;;;;;;;;;;5073813;28;20024;-43
2021/08/12 12:30:49;;;;;;;19.65;4.88;;;;;;;;;;5072898;28;20079;-45
2021/08/12 12:33:16;;;;;;;7.63;4.47;;;;;;;;;;5074118;28;20058;-48
2021/08/12 12:35:43;;;;;;;17.60;7.60;;;;;;;;;;5073759;28;20158;-47
2021/08/12 12:38:10;;;;;;;21.02;7.30;;;;;;;;;;5076608;28;20038;-44
2021/08/12 12:40:36;;;;;;;11.18;4.57;;;;;;;;;;5075472;28;20110;-45
2021/08/12 12:43:02;;;;;;;17.05;5.45;;;;;;;;;;5073301;28;20087;-45
2021/08/12 12:45:28;;;;;;;8.02;3.38;;;;;;;;;;5065777;28;20085;-45
2021/08/12 12:48:04;;;;;;;32.47;7.40;;;;;;;;;;5068555;28;20047;-48
2021/08/12 12:50:39;;;;;;;11.05;4.05;;;;;;;;;;5068773;28;20387;-46
2021/08/12 12:53:04;;;;;;;8.95;4.32;;;;;;;;;;5065335;28;20032;-47
2021/08/12 12:55:45;;;;;;;23.40;4.32;;;;;;;;;;5075690;28;20020;-45
2021/08/12 12:58:13;;;;;;;29.35;8.57;;;;;;;;;;5072133;28;20096;-43
2021/08/12 13:00:39;;;;;;;21.83;7.82;;;;;;;;;;5076549;28;20475;-44
2021/08/12 13:03:04;;;;;;;16.35;6.32;;;;;;;;;;5073092;28;20051;-47
2021/08/12 13:05:49;;;;;;;20.70;6.35;;;;;;;;;;5075732;28;20087;-46
2021/08/12 13:08:14;;;;;;;14.90;6.95;;;;;;;;;;5072995;28;20028;-46
2021/08/12 13:10:40;;;;;;;22.85;6.68;;;;;;;;;;5066700;28;20021;-43
2021/08/12 13:13:05;;;;;;;19.23;5.53;;;;;;;;;;5074194;28;20028;-46
2021/08/12 13:15:31;;;;;;;15.10;5.80;;;;;;;;;;5073346;28;20065;-45
2021/08/12 13:17:57;;;;;;;16.08;6.18;;;;;;;;;;5070656;28;20116;-47
2021/08/12 13:20:22;;;;;;;11.20;8.02;;;;;;;;;;5075225;28;20107;-46
2021/08/12 13:22:48;;;;;;;18.42;5.88;;;;;;;;;;5074937;28;20051;-42
2021/08/12 13:25:15;;;;;;;11.30;6.15;;;;;;;;;;5072857;28;20077;-46
2021/08/12 13:27:44;;;;;;;12.07;6.78;;;;;;;;;;5075861;28;20052;-43
2021/08/12 13:30:09;;;;;;;21.88;10.90;;;;;;;;;;5072955;28;20063;-43
2021/08/12 13:32:36;;;;;;;9.40;4.57;;;;;;;;;;5063842;28;20089;-47
2021/08/12 13:35:01;;;;;;;9.55;3.17;;;;;;;;;;5070953;28;20042;-43
2021/08/12 13:37:26;;;;;;;2.58;1.88;;;;;;;;;;5075102;28;20400;-41
2021/08/12 13:39:52;;;;;;;12.93;2.67;;;;;;;;;;5072566;28;20012;-43
2021/08/12 13:42:17;;;;;;;11.13;4.13;;;;;;;;;;5078590;28;20030;-40
2021/08/12 13:44:42;;;;;;;14.27;6.78;;;;;;;;;;5079348;28;20032;-41
2021/08/12 13:47:08;;;;;;;8.20;5.05;;;;;;;;;;5078137;28;20131;-43
2021/08/12 13:49:33;;;;;;;8.52;3.50;;;;;;;;;;5079601;28;20028;-42
2021/08/12 13:52:00;;;;;;;21.38;7.90;;;;;;;;;;5076754;28;20051;-41
2021/08/12 13:54:25;;;;;;;10.40;4.95;;;;;;;;;;5073962;28;20020;-41
2021/08/12 13:56:51;;;;;;;16.75;5.22;;;;;;;;;;5075916;28;20480;-42
2021/08/12 13:59:17;;;;;;;17.17;6.30;;;;;;;;;;5076398;28;20062;-41
2021/08/12 14:01:42;;;;;;;9.38;5.13;;;;;;;;;;5076058;28;20461;-42
2021/08/12 14:04:08;;;;;;;14.60;6.65;;;;;;;;;;5071640;28;20027;-43
2021/08/12 14:06:35;;;;;;;27.85;7.38;;;;;;;;;;5073642;28;20531;-43
2021/08/12 14:09:01;;;;;;;15.90;4.97;;;;;;;;;;5073213;28;20021;-46
2021/08/12 14:11:26;;;;;;;3.58;2.38;;;;;;;;;;5076637;28;20028;-41
2021/08/12 14:13:52;;;;;;;10.57;3.83;;;;;;;;;;5073367;28;20030;-42
2021/08/12 14:16:18;;;;;;;35.65;7.68;;;;;;;;;;5073800;28;20527;-41
2021/08/12 14:18:44;;;;;;;21.90;7.20;;;;;;;;;;5074237;28;20083;-43
2021/08/12 14:21:13;;;;;;;17.17;4.03;;;;;;;;;;5076200;28;20029;-46
2021/08/12 14:23:39;;;;;;;17.33;7.82;;;;;;;;;;5073529;28;20430;-51